Time;durP1;ratioP1;P1;durP2;ratioP2;P2;SDS_P1;SDS_P2;PMS_P1;PMS_P2;Temp;Humidity;BMP_temperature;BMP_pressure;BME280_temperature;BME280_humidity;BME280_pressure;Samples;Min_cycle;Max_cycle;Signal;HPM_P1;HPM_P2
2022/04/02 00:01:58;;;;;;;;;;;-0.30;99.90;;;;;;5098899;28;19923;-70
2022/04/02 00:04:25;;;;;;;;;;;-0.30;99.90;;;;;;5100473;28;19967;-70
2022/04/02 00:06:53;;;;;;;;;;;-0.30;99.90;;;;;;5108352;28;19928;-70
2022/04/02 00:09:21;;;;;;;;;;;-0.30;99.90;;;;;;5108935;28;19930;-70
2022/04/02 00:11:48;;;;;;;;;;;-0.40;99.90;;;;;;5107972;28;19934;-70
2022/04/02 00:14:15;;;;;;;;;;;-0.30;99.90;;;;;;5100098;28;20383;-70
2022/04/02 00:16:41;;;;;;;;;;;-0.30;99.90;;;;;;5105255;28;20353;-70
2022/04/02 00:19:08;;;;;;;;;;;-0.30;99.90;;;;;;5114007;28;19968;-70
2022/04/02 00:21:38;;;;;;;;;;;-0.30;99.90;;;;;;5112690;28;20412;-70
2022/04/02 00:24:06;;;;;;;;;;;-0.30;99.90;;;;;;5108515;28;19924;-70
2022/04/02 00:26:34;;;;;;;;;;;-0.30;99.90;;;;;;5089941;28;19969;-70
2022/04/02 00:29:01;;;;;;;;;;;-0.30;99.90;;;;;;5113375;28;19959;-70
2022/04/02 00:31:29;;;;;;;;;;;-0.30;99.90;;;;;;5090301;28;19974;-70
2022/04/02 00:33:56;;;;;;;;;;;-0.30;99.90;;;;;;5103719;28;19953;-70
2022/04/02 00:36:23;;;;;;;;;;;-0.40;99.90;;;;;;5109760;28;19976;-70
2022/04/02 00:38:50;;;;;;;;;;;-0.30;99.90;;;;;;5114845;28;19930;-70
2022/04/02 00:41:17;;;;;;;;;;;-0.40;99.90;;;;;;5093450;28;20022;-69
2022/04/02 00:43:54;;;;;;;;;;;-0.40;99.90;;;;;;5107675;28;19924;-70
2022/04/02 00:46:21;;;;;;;;;;;-0.40;99.90;;;;;;5101986;28;19971;-70
2022/04/02 00:48:50;;;;;;;;;;;-0.40;99.90;;;;;;5098398;28;19924;-70
2022/04/02 00:51:18;;;;;;;;;;;-0.40;99.90;;;;;;5095254;28;19924;-70
2022/04/02 00:53:47;;;;;;;;;;;-0.40;99.90;;;;;;5106872;28;20197;-70
2022/04/02 00:56:15;;;;;;;;;;;-0.40;99.90;;;;;;5104909;28;20331;-70
2022/04/02 00:58:42;;;;;;;;;;;-0.40;99.90;;;;;;5108399;28;20010;-70
2022/04/02 01:01:08;;;;;;;;;;;-0.40;99.90;;;;;;5104090;28;20035;-71
2022/04/02 01:03:35;;;;;;;;;;;-0.50;99.90;;;;;;5106300;28;20465;-70
2022/04/02 01:06:02;;;;;;;;;;;-0.40;99.90;;;;;;5101572;28;19930;-70
2022/04/02 01:08:29;;;;;;;;;;;-0.50;99.90;;;;;;5097870;28;19960;-71
2022/04/02 01:10:57;;;;;;;;;;;-0.50;99.90;;;;;;5079177;28;20374;-70
2022/04/02 01:13:25;;;;;;;;;;;-0.40;99.90;;;;;;5099738;28;19959;-70
2022/04/02 01:15:52;;;;;;;;;;;-0.40;99.90;;;;;;5102877;28;20014;-70
2022/04/02 01:18:18;;;;;;;;;;;-0.50;99.90;;;;;;5112309;28;19923;-70
2022/04/02 01:20:48;;;;;;;;;;;-0.40;99.90;;;;;;5095617;28;20005;-71
2022/04/02 01:23:17;;;;;;;;;;;-0.40;99.90;;;;;;5089714;28;19931;-71
2022/04/02 01:25:44;;;;;;;;;;;-0.40;99.90;;;;;;5104349;28;19924;-71
2022/04/02 01:28:11;;;;;;;;;;;-0.50;99.90;;;;;;5094794;28;19928;-71
2022/04/02 01:30:38;;;;;;;;;;;-0.40;99.90;;;;;;5106050;28;20016;-71
2022/04/02 01:33:05;;;;;;;;;;;-0.50;99.90;;;;;;5092883;28;20299;-71
2022/04/02 01:35:32;;;;;;;;;;;-0.50;99.90;;;;;;5105332;28;20011;-71
2022/04/02 01:37:58;;;;;;;;;;;-0.50;99.90;;;;;;5103120;28;20031;-72
2022/04/02 01:40:25;;;;;;;;;;;-0.50;99.90;;;;;;5105160;28;20621;-72
2022/04/02 01:42:52;;;;;;;;;;;-0.50;99.90;;;;;;5100586;28;20078;-72
2022/04/02 01:45:18;;;;;;;;;;;-0.50;99.90;;;;;;5102900;28;19966;-72
2022/04/02 01:47:46;;;;;;;;;;;-0.50;99.90;;;;;;5101141;28;19941;-72
2022/04/02 01:50:13;;;;;;;;;;;-0.50;99.90;;;;;;5086259;28;19924;-72
2022/04/02 01:52:39;;;;;;;;;;;-0.50;99.90;;;;;;5106523;28;19924;-72
2022/04/02 01:55:06;;;;;;;;;;;-0.50;99.90;;;;;;5102909;28;19942;-73
2022/04/02 01:57:33;;;;;;;;;;;-0.50;99.90;;;;;;5106367;28;20371;-72
2022/04/02 02:00:05;;;;;;;;;;;-0.50;99.90;;;;;;5111155;28;19934;-73
2022/04/02 02:02:32;;;;;;;;;;;-0.50;99.90;;;;;;5095933;28;19932;-73
2022/04/02 02:04:58;;;;;;;;;;;-0.50;99.90;;;;;;5086947;28;20014;-74
2022/04/02 02:07:26;;;;;;;;;;;-0.50;99.90;;;;;;5103502;28;20054;-73
2022/04/02 02:09:57;;;;;;;;;;;-0.40;99.90;;;;;;5097036;28;20001;-73
2022/04/02 02:12:24;;;;;;;;;;;-0.50;99.90;;;;;;5106557;28;19942;-73
2022/04/02 02:14:52;;;;;;;;;;;-0.50;99.90;;;;;;5101627;28;19924;-73
2022/04/02 02:17:19;;;;;;;;;;;-0.50;99.90;;;;;;5106771;28;19919;-73
2022/04/02 02:19:46;;;;;;;;;;;-0.50;99.90;;;;;;5097136;28;19926;-73
2022/04/02 02:22:12;;;;;;;;;;;-0.50;99.90;;;;;;5103203;28;19920;-74
2022/04/02 02:24:39;;;;;;;;;;;-0.50;99.90;;;;;;5108487;28;19972;-73
2022/04/02 02:27:08;;;;;;;;;;;-0.50;99.90;;;;;;5101305;28;20397;-72
2022/04/02 02:29:35;;;;;;;;;;;-0.50;99.90;;;;;;5094257;28;20018;-72
2022/04/02 02:32:05;;;;;;;;;;;-0.50;99.90;;;;;;5101680;28;19973;-72
2022/04/02 02:37:18;;;;;;;;;;;-0.50;99.90;;;;;;5098260;28;19960;-72
2022/04/02 02:39:45;;;;;;;;;;;-0.50;99.90;;;;;;5101337;28;19924;-73
2022/04/02 02:42:12;;;;;;;;;;;-0.50;99.90;;;;;;5108928;28;19920;-73
2022/04/02 02:44:38;;;;;;;;;;;-0.60;99.90;;;;;;5097690;28;19919;-73
2022/04/02 02:47:06;;;;;;;;;;;-0.50;99.90;;;;;;5102112;28;19963;-73
2022/04/02 02:49:32;;;;;;;;;;;-0.60;99.90;;;;;;5097983;28;19966;-74
2022/04/02 02:51:59;;;;;;;;;;;-0.60;99.90;;;;;;5101197;28;20455;-73
2022/04/02 02:54:26;;;;;;;;;;;-0.60;99.90;;;;;;5101692;28;19920;-74
2022/04/02 02:56:53;;;;;;;;;;;-0.60;99.90;;;;;;5088984;28;19952;-73
2022/04/02 02:59:20;;;;;;;;;;;-0.70;99.90;;;;;;5100886;28;19924;-73
2022/04/02 03:01:50;;;;;;;;;;;-0.60;99.90;;;;;;5101114;28;19920;-73
2022/04/02 03:04:18;;;;;;;;;;;-0.70;99.90;;;;;;5108930;28;20362;-72
2022/04/02 03:06:45;;;;;;;;;;;-0.70;99.90;;;;;;5096902;28;20401;-72
2022/04/02 03:09:12;;;;;;;;;;;-0.70;99.90;;;;;;5101536;28;19927;-73
2022/04/02 03:11:38;;;;;;;;;;;-0.70;99.90;;;;;;5110911;28;19967;-74
2022/04/02 03:14:05;;;;;;;;;;;-0.70;99.90;;;;;;5097285;28;19964;-73
2022/04/02 03:16:32;;;;;;;;;;;-0.70;99.90;;;;;;5088963;28;19919;-73
2022/04/02 03:19:00;;;;;;;;;;;-0.70;99.90;;;;;;5101918;28;19924;-74
2022/04/02 03:21:28;;;;;;;;;;;-0.70;99.90;;;;;;5093987;28;19927;-73
2022/04/02 03:23:55;;;;;;;;;;;-0.60;99.90;;;;;;5087189;28;20031;-73
2022/04/02 03:26:22;;;;;;;;;;;-0.60;99.90;;;;;;5099442;28;20367;-73
2022/04/02 03:28:49;;;;;;;;;;;-0.60;99.90;;;;;;5100251;28;19924;-74
2022/04/02 03:31:17;;;;;;;;;;;-0.60;99.90;;;;;;5101151;28;19919;-74
2022/04/02 03:33:47;;;;;;;;;;;-0.70;99.90;;;;;;5109447;28;19920;-73
2022/04/02 03:36:13;;;;;;;;;;;-0.60;99.90;;;;;;5093015;28;19931;-72
2022/04/02 03:38:41;;;;;;;;;;;-0.70;99.90;;;;;;5098294;28;20155;-74
2022/04/02 03:41:10;;;;;;;;;;;-0.60;99.90;;;;;;5097006;28;20323;-73
2022/04/02 03:43:37;;;;;;;;;;;-0.60;99.90;;;;;;5094657;28;19997;-73
2022/04/02 03:48:55;;;;;;;;;;;-0.70;99.90;;;;;;5105390;28;19924;-73
2022/04/02 03:51:24;;;;;;;;;;;-0.70;99.90;;;;;;5094266;28;19923;-73
2022/04/02 03:53:51;;;;;;;;;;;-0.80;99.90;;;;;;5101705;28;20014;-74
2022/04/02 03:56:18;;;;;;;;;;;-0.70;99.90;;;;;;5101402;28;19919;-72
2022/04/02 03:58:46;;;;;;;;;;;-0.70;99.90;;;;;;5102458;28;19930;-74
2022/04/02 04:01:13;;;;;;;;;;;-0.80;99.90;;;;;;5108330;28;20035;-73
2022/04/02 04:03:40;;;;;;;;;;;-0.80;99.90;;;;;;5104383;28;19970;-74
2022/04/02 04:06:06;;;;;;;;;;;-0.80;99.90;;;;;;5110583;28;19950;-73
2022/04/02 04:08:35;;;;;;;;;;;-0.80;99.90;;;;;;5106423;28;19927;-72
2022/04/02 04:11:02;;;;;;;;;;;-0.80;99.90;;;;;;5095472;28;20019;-72
2022/04/02 04:13:29;;;;;;;;;;;-0.80;99.90;;;;;;5108137;28;20345;-73
2022/04/02 04:15:56;;;;;;;;;;;-0.80;99.90;;;;;;5107850;28;20034;-73
2022/04/02 04:18:23;;;;;;;;;;;-0.80;99.90;;;;;;5094430;28;19998;-73
2022/04/02 04:20:53;;;;;;;;;;;-0.90;99.90;;;;;;5098328;28;19919;-73
2022/04/02 04:23:22;;;;;;;;;;;-0.90;99.90;;;;;;5096623;28;19926;-73
2022/04/02 04:25:48;;;;;;;;;;;-0.90;99.90;;;;;;5099051;28;20333;-73
2022/04/02 04:28:15;;;;;;;;;;;-0.90;99.90;;;;;;5099897;28;20010;-73
2022/04/02 04:30:42;;;;;;;;;;;-0.90;99.90;;;;;;5102510;28;19977;-73
2022/04/02 04:33:11;;;;;;;;;;;-0.90;99.90;;;;;;5095813;28;19928;-73
2022/04/02 04:35:46;;;;;;;;;;;-0.90;99.90;;;;;;5097478;28;20285;-74
2022/04/02 04:38:13;;;;;;;;;;;-0.90;99.90;;;;;;5077335;28;19963;-74
2022/04/02 04:40:40;;;;;;;;;;;-1.00;99.90;;;;;;5096401;28;19930;-74
2022/04/02 04:43:07;;;;;;;;;;;-1.00;99.90;;;;;;5095914;28;19959;-74
2022/04/02 04:45:33;;;;;;;;;;;-1.00;99.90;;;;;;5098571;28;19999;-74
2022/04/02 04:48:00;;;;;;;;;;;-1.00;99.90;;;;;;5107336;27;19919;-74
2022/04/02 04:50:30;;;;;;;;;;;-1.00;99.90;;;;;;5110194;28;20868;-72
2022/04/02 04:53:00;;;;;;;;;;;-1.00;99.90;;;;;;5110373;27;19963;-74
2022/04/02 04:55:27;;;;;;;;;;;-1.00;99.90;;;;;;5118114;27;20293;-73
2022/04/02 04:57:54;;;;;;;;;;;-1.00;99.90;;;;;;5098881;28;20437;-74
2022/04/02 05:00:20;;;;;;;;;;;-1.00;99.90;;;;;;5115489;27;19919;-73
2022/04/02 05:02:47;;;;;;;;;;;-1.00;99.90;;;;;;5096167;28;19951;-74
2022/04/02 05:05:14;;;;;;;;;;;-1.00;99.90;;;;;;5111115;27;19984;-74
2022/04/02 05:07:56;;;;;;;;;;;-1.00;99.90;;;;;;5101509;28;20046;-74
2022/04/02 05:10:23;;;;;;;;;;;-1.00;99.90;;;;;;5117041;27;20376;-75
2022/04/02 05:12:49;;;;;;;;;;;-1.00;99.90;;;;;;5106535;28;19947;-74
2022/04/02 05:15:16;;;;;;;;;;;-1.00;99.90;;;;;;5121604;27;19920;-73
2022/04/02 05:17:43;;;;;;;;;;;-1.00;99.90;;;;;;5112554;27;19926;-74
2022/04/02 05:20:10;;;;;;;;;;;-1.00;99.90;;;;;;5095462;28;19955;-74
2022/04/02 05:22:37;;;;;;;;;;;-1.00;99.90;;;;;;5097298;28;19927;-74
2022/04/02 05:25:04;;;;;;;;;;;-1.00;99.90;;;;;;5103330;28;19974;-74
2022/04/02 05:27:33;;;;;;;;;;;-1.00;99.90;;;;;;5097609;28;19959;-74
2022/04/02 05:30:00;;;;;;;;;;;-1.00;99.90;;;;;;5096934;28;19935;-74
2022/04/02 05:32:30;;;;;;;;;;;-1.00;99.90;;;;;;5100332;28;20350;-75
2022/04/02 05:34:58;;;;;;;;;;;-0.90;99.90;;;;;;5108424;27;20023;-73
2022/04/02 05:37:25;;;;;;;;;;;-0.90;99.90;;;;;;5098612;28;19979;-73
2022/04/02 05:39:53;;;;;;;;;;;-0.90;99.90;;;;;;5080694;28;20612;-73
2022/04/02 05:42:21;;;;;;;;;;;-0.90;99.90;;;;;;5089252;28;20374;-72
2022/04/02 05:44:49;;;;;;;;;;;-0.90;99.90;;;;;;5089688;28;19955;-73
2022/04/02 05:47:16;;;;;;;;;;;-0.80;99.90;;;;;;5095489;28;19973;-72
2022/04/02 05:49:45;;;;;;;;;;;-0.80;99.90;;;;;;5090548;28;20450;-71
2022/04/02 05:52:16;;;;;;;;;;;-0.80;99.90;;;;;;5099379;28;19919;-71
2022/04/02 05:54:44;;;;;;;;;;;-0.80;99.90;;;;;;5099174;28;19958;-71
2022/04/02 05:57:11;;;;;;;;;;;-0.80;99.90;;;;;;5075465;28;19966;-71
2022/04/02 05:59:39;;;;;;;;;;;-0.70;99.90;;;;;;5094607;28;19923;-72
2022/04/02 06:02:08;;;;;;;;;;;-0.70;99.90;;;;;;5103781;28;19927;-72
2022/04/02 06:04:35;;;;;;;;;;;-0.70;99.90;;;;;;5103008;28;20406;-71
2022/04/02 06:07:04;;;;;;;;;;;-0.60;99.90;;;;;;5101340;28;19920;-71
2022/04/02 06:09:31;;;;;;;;;;;-0.60;99.90;;;;;;5080691;28;20012;-72
2022/04/02 06:11:57;;;;;;;;;;;-0.60;99.90;;;;;;5095425;28;19951;-73
2022/04/02 06:14:24;;;;;;;;;;;-0.60;99.90;;;;;;5095995;28;19967;-72
2022/04/02 06:16:51;;;;;;;;;;;-0.50;99.90;;;;;;5100932;28;19920;-72
2022/04/02 06:19:19;;;;;;;;;;;-0.50;99.90;;;;;;5098348;28;19923;-71
2022/04/02 06:21:47;;;;;;;;;;;-0.50;99.90;;;;;;5101090;28;19927;-72
2022/04/02 06:24:15;;;;;;;;;;;-0.50;99.90;;;;;;5080809;28;19961;-70
2022/04/02 06:26:49;;;;;;;;;;;-0.50;99.90;;;;;;5090895;28;19927;-70
2022/04/02 06:29:16;;;;;;;;;;;-0.40;99.90;;;;;;5101653;28;19924;-70
2022/04/02 06:31:43;;;;;;;;;;;-0.40;99.90;;;;;;5099010;28;19920;-71
2022/04/02 06:34:11;;;;;;;;;;;-0.40;99.90;;;;;;5100840;28;20662;-71
2022/04/02 06:36:38;;;;;;;;;;;-0.40;99.90;;;;;;5092914;28;20021;-70
2022/04/02 06:39:04;;;;;;;;;;;-0.40;99.90;;;;;;5094106;27;20006;-70
2022/04/02 06:41:31;;;;;;;;;;;-0.40;99.90;;;;;;5114583;27;20289;-71
2022/04/02 06:44:01;;;;;;;;;;;-0.30;99.90;;;;;;5096271;28;19934;-71
2022/04/02 06:46:27;;;;;;;;;;;-0.40;99.90;;;;;;5079495;28;19928;-70
2022/04/02 06:48:54;;;;;;;;;;;-0.40;99.90;;;;;;5087484;28;19920;-70
2022/04/02 06:51:21;;;;;;;;;;;-0.40;99.90;;;;;;5102520;27;20031;-70
2022/04/02 06:53:47;;;;;;;;;;;-0.40;99.90;;;;;;5118256;27;19963;-70
2022/04/02 06:56:14;;;;;;;;;;;-0.40;99.90;;;;;;5083172;28;20014;-70
2022/04/02 06:58:41;;;;;;;;;;;-0.30;99.90;;;;;;5105956;28;20018;-70
2022/04/02 07:01:14;;;;;;;;;;;-0.30;99.90;;;;;;5085803;28;19948;-70
2022/04/02 07:03:40;;;;;;;;;;;-0.30;99.90;;;;;;5100578;28;20001;-69
2022/04/02 07:06:08;;;;;;;;;;;-0.20;99.90;;;;;;5096495;28;20018;-70
2022/04/02 07:08:37;;;;;;;;;;;-0.10;99.90;;;;;;5091896;28;20022;-70
2022/04/02 07:11:05;;;;;;;;;;;-0.10;99.90;;;;;;5105029;28;20003;-70
2022/04/02 07:13:34;;;;;;;;;;;-0.10;99.90;;;;;;5095914;28;19963;-70
2022/04/02 07:16:03;;;;;;;;;;;-0.10;99.90;;;;;;5102006;28;19919;-71
2022/04/02 07:18:30;;;;;;;;;;;0.00;99.90;;;;;;5105033;28;19924;-71
2022/04/02 07:21:00;;;;;;;;;;;-0.10;99.90;;;;;;5102264;28;20353;-71
2022/04/02 07:23:28;;;;;;;;;;;-0.10;99.90;;;;;;5104050;28;20370;-71
2022/04/02 07:25:55;;;;;;;;;;;-0.10;99.90;;;;;;5100424;28;19955;-71
2022/04/02 07:28:23;;;;;;;;;;;0.00;99.90;;;;;;5094091;28;20369;-71
2022/04/02 07:30:50;;;;;;;;;;;0.00;99.90;;;;;;5109805;28;19919;-70
2022/04/02 07:33:17;;;;;;;;;;;0.10;99.90;;;;;;5097998;28;19970;-70
2022/04/02 07:35:54;;;;;;;;;;;0.20;99.90;;;;;;5091293;28;19924;-70
2022/04/02 07:38:34;;;;;;;;;;;0.20;99.90;;;;;;5091961;28;20011;-71
2022/04/02 07:41:06;;;;;;;;;;;0.30;99.90;;;;;;5100947;28;19955;-72
2022/04/02 07:43:41;;;;;;;;;;;0.40;99.90;;;;;;5088456;28;19920;-71
2022/04/02 07:46:13;;;;;;;;;;;0.50;99.90;;;;;;5099319;28;19919;-71
2022/04/02 07:48:41;;;;;;;;;;;0.60;99.90;;;;;;5099103;28;19934;-72
2022/04/02 07:51:11;;;;;;;;;;;0.70;99.90;;;;;;5084696;28;19920;-72
2022/04/02 07:53:49;;;;;;;;;;;0.60;99.90;;;;;;5093513;28;19935;-72
2022/04/02 07:56:20;;;;;;;;;;;0.70;99.90;;;;;;5105679;28;19920;-73
2022/04/02 07:58:50;;;;;;;;;;;0.70;99.90;;;;;;5100179;28;19993;-73
2022/04/02 08:01:18;;;;;;;;;;;0.80;99.90;;;;;;5092924;28;19967;-73
2022/04/02 08:03:45;;;;;;;;;;;0.90;99.90;;;;;;5095182;28;19924;-73
2022/04/02 08:06:15;;;;;;;;;;;0.80;99.90;;;;;;5110265;28;19919;-74
2022/04/02 08:08:42;;;;;;;;;;;0.80;99.90;;;;;;5099046;28;20037;-73
2022/04/02 08:11:10;;;;;;;;;;;0.80;99.90;;;;;;5086097;28;19980;-74
2022/04/02 08:13:37;;;;;;;;;;;0.90;99.90;;;;;;5106986;28;19920;-73
2022/04/02 08:16:04;;;;;;;;;;;0.90;99.90;;;;;;5103650;28;20018;-74
2022/04/02 08:18:31;;;;;;;;;;;0.90;99.90;;;;;;5095223;28;19926;-73
2022/04/02 08:21:02;;;;;;;;;;;0.90;99.90;;;;;;5105432;28;20006;-74
2022/04/02 08:23:31;;;;;;;;;;;1.00;99.90;;;;;;5113012;28;20282;-71
2022/04/02 08:26:01;;;;;;;;;;;1.10;99.90;;;;;;5103126;28;20002;-71
2022/04/02 08:28:49;;;;;;;;;;;1.00;99.90;;;;;;5112346;28;19919;-72
2022/04/02 08:31:36;;;;;;;;;;;1.00;99.90;;;;;;5101139;28;19959;-72
2022/04/02 08:34:22;;;;;;;;;;;1.10;99.90;;;;;;5071552;28;19923;-72
2022/04/02 08:36:52;;;;;;;;;;;1.30;99.90;;;;;;5104762;28;20033;-72
2022/04/02 08:39:24;;;;;;;;;;;1.40;99.90;;;;;;5091337;28;19919;-71
2022/04/02 08:41:51;;;;;;;;;;;1.50;99.90;;;;;;5089813;28;19927;-72
2022/04/02 08:44:18;;;;;;;;;;;1.50;99.90;;;;;;5094732;27;20006;-72
2022/04/02 08:47:03;;;;;;;;;;;1.80;99.90;;;;;;5106421;28;19926;-72
2022/04/02 08:49:34;;;;;;;;;;;1.80;99.90;;;;;;5099371;28;19920;-72
2022/04/02 08:52:01;;;;;;;;;;;2.10;99.90;;;;;;5097714;27;19965;-73
2022/04/02 08:54:29;;;;;;;;;;;2.30;99.90;;;;;;5109966;28;19950;-72
2022/04/02 08:56:59;;;;;;;;;;;2.40;99.90;;;;;;5092931;28;19930;-74
2022/04/02 08:59:37;;;;;;;;;;;2.50;99.90;;;;;;5102647;28;19955;-75
2022/04/02 09:02:22;;;;;;;;;;;2.60;99.90;;;;;;5096398;28;19936;-74
2022/04/02 09:04:51;;;;;;;;;;;2.50;99.90;;;;;;5099055;28;19920;-74
2022/04/02 09:07:39;;;;;;;;;;;2.50;99.90;;;;;;5103258;28;19920;-73
2022/04/02 09:10:24;;;;;;;;;;;2.50;99.90;;;;;;5105234;28;20297;-73
2022/04/02 09:13:06;;;;;;;;;;;2.60;99.90;;;;;;5110904;27;20014;-73
2022/04/02 09:15:39;;;;;;;;;;;2.60;99.90;;;;;;5094687;28;20262;-74
2022/04/02 09:18:17;;;;;;;;;;;2.80;99.90;;;;;;5104390;28;19920;-74
2022/04/02 09:21:07;;;;;;;;;;;2.90;99.90;;;;;;5087608;28;20018;-74
2022/04/02 09:23:49;;;;;;;;;;;3.00;99.90;;;;;;5100339;28;20273;-75
2022/04/02 09:26:22;;;;;;;;;;;3.10;99.90;;;;;;5106020;28;19920;-75
2022/04/02 09:28:54;;;;;;;;;;;3.40;99.90;;;;;;5084093;28;19919;-75
2022/04/02 09:31:42;;;;;;;;;;;3.70;99.90;;;;;;5108326;28;19964;-75
2022/04/02 09:34:08;;;;;;;;;;;4.00;99.90;;;;;;5107233;28;19963;-76
2022/04/02 09:36:59;;;;;;;;;;;3.90;99.90;;;;;;5111374;28;19947;-76
2022/04/02 09:39:28;;;;;;;;;;;4.00;99.90;;;;;;5098544;28;20393;-76
2022/04/02 09:41:58;;;;;;;;;;;4.30;99.90;;;;;;5095201;28;20019;-78
2022/04/02 09:44:37;;;;;;;;;;;4.50;99.90;;;;;;5099972;28;19973;-74
2022/04/02 09:47:05;;;;;;;;;;;4.50;99.90;;;;;;5110698;28;19923;-77
2022/04/02 09:49:32;;;;;;;;;;;4.30;99.90;;;;;;5108383;28;19920;-77
2022/04/02 09:52:03;;;;;;;;;;;4.50;99.90;;;;;;5093281;28;19966;-78
2022/04/02 09:54:41;;;;;;;;;;;4.80;99.90;;;;;;5096939;28;19959;-79
2022/04/02 09:57:09;;;;;;;;;;;4.80;99.90;;;;;;5105483;28;20011;-79
2022/04/02 09:59:55;;;;;;;;;;;5.00;99.90;;;;;;5101876;28;20325;-79
2022/04/02 10:02:42;;;;;;;;;;;5.20;99.90;;;;;;5102183;28;20356;-79
2022/04/02 10:05:12;;;;;;;;;;;5.30;99.90;;;;;;5088357;28;19969;-80
2022/04/02 10:07:47;;;;;;;;;;;5.80;99.90;;;;;;5097969;28;20289;-79
2022/04/02 10:10:15;;;;;;;;;;;5.70;99.90;;;;;;5079432;28;20027;-79
2022/04/02 10:12:44;;;;;;;;;;;5.90;99.90;;;;;;5095453;28;20014;-79
2022/04/02 10:15:13;;;;;;;;;;;5.60;99.90;;;;;;5104313;28;20030;-79
2022/04/02 10:17:42;;;;;;;;;;;5.40;99.90;;;;;;5097174;28;19920;-79
2022/04/02 10:20:12;;;;;;;;;;;5.50;99.90;;;;;;5096759;28;19955;-78
2022/04/02 10:22:42;;;;;;;;;;;5.50;99.90;;;;;;5101370;28;19927;-77
2022/04/02 10:25:11;;;;;;;;;;;5.50;99.90;;;;;;5103342;28;20035;-77
2022/04/02 10:27:38;;;;;;;;;;;5.60;99.90;;;;;;5098997;28;19919;-77
2022/04/02 10:30:15;;;;;;;;;;;6.00;99.90;;;;;;5094284;28;20493;-78
2022/04/02 10:32:44;;;;;;;;;;;6.50;99.90;;;;;;5092872;28;19920;-75
2022/04/02 10:35:12;;;;;;;;;;;6.70;99.90;;;;;;5104654;28;19950;-74
2022/04/02 10:37:45;;;;;;;;;;;6.70;99.90;;;;;;5092135;28;20466;-71
2022/04/02 10:40:20;;;;;;;;;;;6.50;99.90;;;;;;5092425;28;20286;-74
2022/04/02 10:42:58;;;;;;;;;;;6.30;99.90;;;;;;5107391;28;20417;-74
2022/04/02 10:45:27;;;;;;;;;;;6.40;99.90;;;;;;5100468;28;19959;-73
2022/04/02 10:48:05;;;;;;;;;;;6.10;99.90;;;;;;5109077;28;20175;-73
2022/04/02 10:50:32;;;;;;;;;;;5.90;99.90;;;;;;5103002;28;19920;-73
2022/04/02 10:53:02;;;;;;;;;;;5.70;99.90;;;;;;5082832;28;20015;-73
2022/04/02 10:55:29;;;;;;;;;;;5.70;99.90;;;;;;5093356;28;20321;-73
2022/04/02 10:57:56;;;;;;;;;;;5.80;99.90;;;;;;5091632;28;19926;-75
2022/04/02 11:00:30;;;;;;;;;;;6.10;99.90;;;;;;5099772;28;20328;-73
2022/04/02 11:03:04;;;;;;;;;;;6.20;99.90;;;;;;5096623;28;19966;-72
2022/04/02 11:05:35;;;;;;;;;;;6.20;99.90;;;;;;5093617;28;20292;-73
2022/04/02 11:08:06;;;;;;;;;;;6.00;99.90;;;;;;5095259;28;19966;-73
2022/04/02 11:10:35;;;;;;;;;;;6.10;99.90;;;;;;5103269;28;19927;-73
2022/04/02 11:13:04;;;;;;;;;;;6.00;99.90;;;;;;5096769;28;20010;-71
2022/04/02 11:15:38;;;;;;;;;;;6.10;99.90;;;;;;5086165;28;20011;-72
2022/04/02 11:18:14;;;;;;;;;;;5.70;99.90;;;;;;5089809;28;19926;-72
2022/04/02 11:20:42;;;;;;;;;;;5.50;99.90;;;;;;5090765;28;20589;-73
2022/04/02 11:23:17;;;;;;;;;;;5.50;99.90;;;;;;5105634;28;20010;-73
2022/04/02 11:25:46;;;;;;;;;;;5.80;99.90;;;;;;5099441;28;20424;-73
2022/04/02 11:28:23;;;;;;;;;;;6.10;99.90;;;;;;5086924;28;20408;-73
2022/04/02 11:31:05;;;;;;;;;;;6.60;99.90;;;;;;5102458;28;19962;-73
2022/04/02 11:33:32;;;;;;;;;;;6.70;99.90;;;;;;5101540;28;19924;-74
2022/04/02 11:36:03;;;;;;;;;;;7.30;99.90;;;;;;5102390;28;19969;-74
2022/04/02 11:38:32;;;;;;;;;;;7.30;99.90;;;;;;5103588;28;19970;-73
2022/04/02 11:40:59;;;;;;;;;;;7.00;99.90;;;;;;5103643;28;19920;-73
2022/04/02 11:43:32;;;;;;;;;;;6.80;99.90;;;;;;5109112;28;19920;-73
2022/04/02 11:46:00;;;;;;;;;;;6.90;99.90;;;;;;5092014;28;19923;-74
2022/04/02 11:48:32;;;;;;;;;;;7.00;99.90;;;;;;5091130;28;19974;-73
2022/04/02 11:51:15;;;;;;;;;;;6.90;99.90;;;;;;5099194;28;19930;-72
2022/04/02 11:53:42;;;;;;;;;;;6.80;99.90;;;;;;5107575;28;20006;-71
2022/04/02 11:56:29;;;;;;;;;;;6.80;99.90;;;;;;5097323;28;19924;-73
2022/04/02 11:58:57;;;;;;;;;;;6.60;99.90;;;;;;5106760;28;19920;-71
2022/04/02 12:01:24;;;;;;;;;;;6.40;99.90;;;;;;5090786;28;20347;-72
2022/04/02 12:04:12;;;;;;;;;;;6.50;99.90;;;;;;5078691;28;19927;-72
2022/04/02 12:06:39;;;;;;;;;;;6.50;99.90;;;;;;5093970;28;19966;-72
2022/04/02 12:09:12;;;;;;;;;;;6.50;99.90;;;;;;5096427;28;19970;-74
2022/04/02 12:11:43;;;;;;;;;;;6.40;99.90;;;;;;5098934;28;19927;-74
2022/04/02 12:14:10;;;;;;;;;;;6.30;99.90;;;;;;5100021;28;19960;-69
2022/04/02 12:16:39;;;;;;;;;;;6.20;99.90;;;;;;5092036;28;20006;-71
2022/04/02 12:19:09;;;;;;;;;;;5.90;99.90;;;;;;5099491;28;19928;-72
2022/04/02 12:21:37;;;;;;;;;;;5.60;99.90;;;;;;5105514;28;21761;-73
2022/04/02 12:24:04;;;;;;;;;;;5.80;99.90;;;;;;5098825;28;19920;-73
2022/04/02 12:26:31;;;;;;;;;;;6.10;99.90;;;;;;5105334;28;19920;-73
2022/04/02 12:28:59;;;;;;;;;;;6.10;99.90;;;;;;5097796;28;19950;-73
2022/04/02 12:31:27;;;;;;;;;;;6.10;99.90;;;;;;5091715;28;20002;-72
2022/04/02 12:33:55;;;;;;;;;;;5.80;99.90;;;;;;5092671;28;19931;-73
2022/04/02 12:36:28;;;;;;;;;;;5.60;99.90;;;;;;5098502;28;20019;-73
2022/04/02 12:39:05;;;;;;;;;;;5.80;99.90;;;;;;5079100;28;19923;-73
2022/04/02 12:41:33;;;;;;;;;;;6.30;99.90;;;;;;5106934;28;19966;-73
2022/04/02 12:44:03;;;;;;;;;;;6.50;99.90;;;;;;5095712;28;19926;-74
2022/04/02 12:46:30;;;;;;;;;;;6.50;99.90;;;;;;5101693;28;20003;-74
2022/04/02 12:48:57;;;;;;;;;;;6.20;99.90;;;;;;5095778;28;20007;-74
2022/04/02 12:51:24;;;;;;;;;;;6.10;99.90;;;;;;5092312;28;20382;-73
2022/04/02 12:54:03;;;;;;;;;;;6.00;99.90;;;;;;5106672;28;19965;-73
2022/04/02 12:56:34;;;;;;;;;;;5.90;99.90;;;;;;5096986;28;19920;-73
2022/04/02 12:59:17;;;;;;;;;;;5.80;99.90;;;;;;5091924;28;19927;-73
2022/04/02 13:01:45;;;;;;;;;;;5.60;99.90;;;;;;5099067;28;19920;-74
2022/04/02 13:04:13;;;;;;;;;;;5.70;99.90;;;;;;5114133;28;20328;-73
2022/04/02 13:06:39;;;;;;;;;;;5.50;99.90;;;;;;5096840;28;19924;-73
2022/04/02 13:09:12;;;;;;;;;;;5.60;99.90;;;;;;5113173;28;19927;-73
2022/04/02 13:11:41;;;;;;;;;;;5.60;99.90;;;;;;5091673;28;19923;-73
2022/04/02 13:14:14;;;;;;;;;;;5.70;99.90;;;;;;5094464;28;20298;-73
2022/04/02 13:16:47;;;;;;;;;;;5.60;99.90;;;;;;5092554;28;20307;-73
2022/04/02 13:22:27;;;;;;;;;;;5.60;99.90;;;;;;5103197;28;19920;-74
2022/04/02 13:24:55;;;;;;;;;;;5.40;99.90;;;;;;5092066;28;19999;-73
2022/04/02 13:27:28;;;;;;;;;;;5.20;99.90;;;;;;5100659;28;19951;-73
2022/04/02 13:30:11;;;;;;;;;;;5.10;99.90;;;;;;5100730;28;20459;-73
2022/04/02 13:32:47;;;;;;;;;;;5.00;99.90;;;;;;5080663;28;20014;-73
2022/04/02 13:35:25;;;;;;;;;;;4.80;99.90;;;;;;5089916;28;20010;-73
2022/04/02 13:38:00;;;;;;;;;;;4.70;99.90;;;;;;5093200;28;19959;-73
2022/04/02 13:40:28;;;;;;;;;;;4.60;99.90;;;;;;5092032;28;19920;-73
2022/04/02 13:43:04;;;;;;;;;;;4.70;99.90;;;;;;5093787;28;20473;-73
2022/04/02 13:45:34;;;;;;;;;;;5.00;99.90;;;;;;5102505;28;19920;-73
2022/04/02 13:48:02;;;;;;;;;;;5.40;99.90;;;;;;5102962;28;19919;-73
2022/04/02 13:50:29;;;;;;;;;;;5.80;99.90;;;;;;5106810;28;20332;-75
2022/04/02 13:53:06;;;;;;;;;;;5.80;99.90;;;;;;5102952;28;19927;-74
2022/04/02 13:55:37;;;;;;;;;;;5.90;99.90;;;;;;5094266;28;19926;-73
2022/04/02 13:58:05;;;;;;;;;;;6.00;99.90;;;;;;5107155;28;20010;-73
2022/04/02 14:00:36;;;;;;;;;;;6.30;99.90;;;;;;5092811;28;20011;-73
2022/04/02 14:03:05;;;;;;;;;;;6.10;99.90;;;;;;5096652;28;20424;-73
2022/04/02 14:05:34;;;;;;;;;;;5.90;99.90;;;;;;5101475;28;19919;-73
2022/04/02 14:08:02;;;;;;;;;;;5.70;99.90;;;;;;5104661;28;20007;-73
2022/04/02 14:10:36;;;;;;;;;;;5.40;99.90;;;;;;5075669;28;19924;-73
2022/04/02 14:13:10;;;;;;;;;;;5.20;99.90;;;;;;5074298;28;19943;-74
2022/04/02 14:15:39;;;;;;;;;;;5.10;99.90;;;;;;5111838;28;19931;-73
2022/04/02 14:18:10;;;;;;;;;;;5.10;99.90;;;;;;5108117;28;20064;-72
2022/04/02 14:20:37;;;;;;;;;;;5.10;99.90;;;;;;5095527;28;19986;-72
2022/04/02 14:23:09;;;;;;;;;;;5.10;99.90;;;;;;5092636;28;19923;-73
2022/04/02 14:25:45;;;;;;;;;;;5.20;99.90;;;;;;5106912;28;19924;-73
2022/04/02 14:28:17;;;;;;;;;;;5.20;99.90;;;;;;5103564;28;20006;-72
2022/04/02 14:30:57;;;;;;;;;;;5.30;99.90;;;;;;5094458;28;20015;-72
2022/04/02 14:33:42;;;;;;;;;;;5.30;99.90;;;;;;5093150;28;19924;-74
2022/04/02 14:36:27;;;;;;;;;;;5.10;99.90;;;;;;5105651;28;19919;-72
2022/04/02 14:39:09;;;;;;;;;;;4.80;99.90;;;;;;5091512;28;20006;-73
2022/04/02 14:41:48;;;;;;;;;;;4.70;99.90;;;;;;5108309;28;19927;-72
2022/04/02 14:44:21;;;;;;;;;;;4.80;99.90;;;;;;5108679;28;19927;-72
2022/04/02 14:47:06;;;;;;;;;;;5.00;99.90;;;;;;5106951;28;19924;-73
2022/04/02 14:49:42;;;;;;;;;;;5.20;99.90;;;;;;5091006;28;19920;-73